createdAt,value
2022-08-23T00:02:32.548Z,97.20
2022-08-23T00:05:35.784Z,97.10
2022-08-23T00:08:37.865Z,96.80
2022-08-23T00:11:47.990Z,97.50
2022-08-23T00:14:53.842Z,97.20
2022-08-23T00:17:55.954Z,97.20
2022-08-23T00:20:57.930Z,98.00
2022-08-23T00:24:00.492Z,97.40
2022-08-23T00:27:05.694Z,97.70
2022-08-23T00:30:09.285Z,98.10
2022-08-23T00:33:11.174Z,97.90
2022-08-23T00:36:13.512Z,98.00
2022-08-23T00:39:15.894Z,98.10
2022-08-23T00:42:45.726Z,97.70
2022-08-23T00:46:25.069Z,98.10
2022-08-23T00:49:27.539Z,97.80
2022-08-23T00:52:37.607Z,97.80
2022-08-23T00:55:41.276Z,97.70
2022-08-23T00:58:43.298Z,97.70
2022-08-23T01:01:45.353Z,97.80
2022-08-23T01:04:50.203Z,97.70
2022-08-23T01:07:54.703Z,97.60
2022-08-23T01:11:03.738Z,97.60
2022-08-23T01:14:14.200Z,97.80
2022-08-23T01:17:38.246Z,97.90
2022-08-23T01:20:53.591Z,97.60
2022-08-23T01:23:57.831Z,97.80
2022-08-23T01:27:00.427Z,97.70
2022-08-23T01:30:04.666Z,98.00
2022-08-23T01:33:07.256Z,98.10
2022-08-23T01:36:11.070Z,98.00
2022-08-23T01:39:12.996Z,98.10
2022-08-23T01:42:15.995Z,97.90
2022-08-23T01:45:18.216Z,97.80
2022-08-23T01:48:20.891Z,97.70
2022-08-23T01:51:24.025Z,97.70
2022-08-23T01:54:25.970Z,97.70
2022-08-23T01:57:29.165Z,98.00
2022-08-23T02:00:33.286Z,98.00
2022-08-23T02:03:37.321Z,97.60
2022-08-23T02:06:39.318Z,97.40
2022-08-23T02:09:41.261Z,97.50
2022-08-23T02:12:44.090Z,97.50
2022-08-23T02:15:47.079Z,97.60
2022-08-23T02:18:49.009Z,97.70
2022-08-23T02:21:51.185Z,97.90
2022-08-23T02:24:53.708Z,97.80
2022-08-23T02:27:55.885Z,98.20
2022-08-23T02:30:57.822Z,98.40
2022-08-23T02:34:00.640Z,98.20
2022-08-23T02:37:02.620Z,98.70
2022-08-23T02:40:05.308Z,98.80
2022-08-23T02:43:07.742Z,98.50
2022-08-23T02:46:09.827Z,98.70
2022-08-23T02:49:12.060Z,98.60
2022-08-23T02:52:14.011Z,98.90
2022-08-23T02:55:16.358Z,98.70
2022-08-23T02:58:18.228Z,98.70
2022-08-23T03:01:21.781Z,99.00
2022-08-23T03:04:24.077Z,98.50
2022-08-23T03:07:26.153Z,98.90
2022-08-23T03:10:28.419Z,99.20
2022-08-23T03:13:31.154Z,98.80
2022-08-23T03:16:33.096Z,98.80
2022-08-23T03:19:35.079Z,98.80
2022-08-23T03:22:37.858Z,99.00
2022-08-23T03:25:40.514Z,99.00
2022-08-23T03:28:43.341Z,99.20
2022-08-23T03:31:45.360Z,99.30
2022-08-23T03:34:47.302Z,99.20
2022-08-23T03:37:52.389Z,99.30
2022-08-23T03:40:57.410Z,99.30
2022-08-23T03:43:59.410Z,99.20
2022-08-23T03:47:02.269Z,99.30
2022-08-23T03:50:04.296Z,99.40
2022-08-23T03:53:06.529Z,99.40
2022-08-23T03:56:11.079Z,99.10
2022-08-23T03:59:13.119Z,99.30
2022-08-23T04:02:15.987Z,99.10
2022-08-23T04:05:18.332Z,99.30
2022-08-23T04:08:27.076Z,99.60
2022-08-23T04:11:37.904Z,99.30
2022-08-23T04:14:39.882Z,99.70
2022-08-23T04:17:42.744Z,99.70
2022-08-23T04:20:45.689Z,99.40
2022-08-23T04:23:48.076Z,99.50
2022-08-23T04:26:50.046Z,99.60
2022-08-23T04:29:52.010Z,99.50
2022-08-23T04:32:53.965Z,99.60
2022-08-23T04:35:57.921Z,99.50
2022-08-23T04:39:01.925Z,99.80
2022-08-23T04:42:19.068Z,99.70
2022-08-23T04:45:24.205Z,99.70
2022-08-23T04:48:26.340Z,99.50
2022-08-23T04:51:29.302Z,99.80
2022-08-23T04:54:31.794Z,99.90
2022-08-23T04:57:33.754Z,99.90
2022-08-23T05:00:35.751Z,99.90
2022-08-23T05:03:38.245Z,99.90
2022-08-23T05:06:40.291Z,99.90
2022-08-23T05:09:42.223Z,99.90
2022-08-23T05:12:44.325Z,99.90
2022-08-23T05:15:46.279Z,99.90
2022-08-23T05:18:48.289Z,99.90
2022-08-23T05:21:52.889Z,99.90
2022-08-23T05:24:58.840Z,99.90
2022-08-23T05:28:00.855Z,99.90
2022-08-23T05:31:05.355Z,99.90
2022-08-23T05:34:07.351Z,99.90
2022-08-23T05:37:09.314Z,99.90
2022-08-23T05:40:13.012Z,99.90
2022-08-23T05:43:15.190Z,99.90
2022-08-23T05:46:21.014Z,99.90
2022-08-23T05:49:24.366Z,99.90
2022-08-23T05:52:37.469Z,99.90
2022-08-23T05:55:39.514Z,99.90
2022-08-23T05:58:42.144Z,99.90
2022-08-23T06:01:44.455Z,99.90
2022-08-23T06:04:46.667Z,99.90
2022-08-23T06:07:49.445Z,99.90
2022-08-23T06:10:59.858Z,99.90
2022-08-23T06:14:04.501Z,99.90
2022-08-23T06:17:06.681Z,99.90
2022-08-23T06:20:10.486Z,99.90
2022-08-23T06:23:12.641Z,99.90
2022-08-23T06:26:15.142Z,99.90
2022-08-23T06:29:18.927Z,99.90
2022-08-23T06:32:22.735Z,99.90
2022-08-23T06:35:39.287Z,99.70
2022-08-23T06:38:42.152Z,99.20
2022-08-23T06:41:44.630Z,98.40
2022-08-23T06:44:46.602Z,97.90
2022-08-23T06:47:48.447Z,96.90
2022-08-23T06:50:50.413Z,96.20
2022-08-23T06:53:55.122Z,95.10
2022-08-23T06:56:57.789Z,94.60
2022-08-23T06:59:59.749Z,93.70
2022-08-23T07:03:01.866Z,93.00
2022-08-23T07:06:03.991Z,92.60
2022-08-23T07:09:05.934Z,92.10
2022-08-23T07:12:08.292Z,90.80
2022-08-23T07:15:11.323Z,91.10
2022-08-23T07:18:13.708Z,88.90
2022-08-23T07:21:16.053Z,88.60
2022-08-23T07:24:18.342Z,86.00
2022-08-23T07:27:20.468Z,87.00
2022-08-23T07:30:32.562Z,84.40
2022-08-23T07:33:35.745Z,83.50
2022-08-23T07:36:41.135Z,83.70
2022-08-23T07:39:43.880Z,81.80
2022-08-23T07:42:45.829Z,81.30
2022-08-23T07:45:48.851Z,80.30
2022-08-23T07:48:54.409Z,80.20
2022-08-23T07:51:58.928Z,75.90
2022-08-23T07:55:02.013Z,74.30
2022-08-23T07:58:04.075Z,72.10
2022-08-23T08:01:23.397Z,70.70
2022-08-23T08:04:25.471Z,70.20
2022-08-23T08:07:27.803Z,70.10
2022-08-23T08:10:32.866Z,66.50
2022-08-23T08:13:38.109Z,64.50
2022-08-23T08:16:42.599Z,66.00
2022-08-23T08:19:44.913Z,63.50
2022-08-23T08:22:49.925Z,64.70
2022-08-23T08:26:02.569Z,65.20
2022-08-23T08:29:05.441Z,66.10
2022-08-23T08:32:07.928Z,65.30
2022-08-23T08:35:16.407Z,65.00
2022-08-23T08:38:19.569Z,63.80
2022-08-23T08:41:38.592Z,60.50
2022-08-23T08:44:42.093Z,58.60
2022-08-23T08:48:02.589Z,59.10
2022-08-23T08:51:08.602Z,58.30
2022-08-23T08:54:13.102Z,59.60
2022-08-23T08:57:16.250Z,57.50
2022-08-23T09:00:21.634Z,57.50
2022-08-23T09:03:24.306Z,56.50
2022-08-23T09:06:29.130Z,58.20
2022-08-23T09:09:42.841Z,54.60
2022-08-23T09:12:51.910Z,53.90
2022-08-23T09:16:13.212Z,52.60
2022-08-23T09:19:15.564Z,52.40
2022-08-23T09:22:21.118Z,50.80
2022-08-23T09:25:24.292Z,48.00
2022-08-23T09:28:28.106Z,50.10
2022-08-23T09:31:58.508Z,48.30
2022-08-23T09:35:19.185Z,49.30
2022-08-23T09:38:21.372Z,47.40
2022-08-23T09:41:25.470Z,47.50
2022-08-23T09:44:33.091Z,45.10
2022-08-23T09:47:44.443Z,44.60
2022-08-23T09:50:58.929Z,45.40
2022-08-23T09:54:18.156Z,46.20
2022-08-23T09:57:25.476Z,44.60
2022-08-23T10:00:29.365Z,45.30
2022-08-23T10:03:31.355Z,43.60
2022-08-23T10:06:35.909Z,41.80
2022-08-23T10:09:38.268Z,41.50
2022-08-23T10:12:40.395Z,41.00
2022-08-23T10:15:52.567Z,40.90
2022-08-23T10:19:00.238Z,40.20
2022-08-23T10:22:07.389Z,40.20
2022-08-23T10:25:12.665Z,40.40
2022-08-23T10:28:42.288Z,41.30
2022-08-23T10:31:49.755Z,42.90
2022-08-23T10:35:03.598Z,40.80
2022-08-23T10:38:23.373Z,41.00
2022-08-23T10:41:34.426Z,40.20
2022-08-23T10:44:43.926Z,42.90
2022-08-23T10:47:51.677Z,44.60
2022-08-23T10:50:58.561Z,46.30
2022-08-23T10:54:06.483Z,45.10
2022-08-23T10:57:08.426Z,45.70
2022-08-23T11:00:21.618Z,45.80
2022-08-23T11:03:35.383Z,47.60
2022-08-23T11:06:37.282Z,47.40
2022-08-23T11:09:47.797Z,48.80
2022-08-23T11:12:52.221Z,49.20
2022-08-23T11:15:58.466Z,49.70
2022-08-23T11:19:00.859Z,47.30
2022-08-23T11:22:18.202Z,47.70
2022-08-23T11:25:21.342Z,51.20
2022-08-23T11:28:23.644Z,51.10
2022-08-23T11:31:41.296Z,50.50
2022-08-23T11:34:47.969Z,49.10
2022-08-23T11:37:52.494Z,48.50
2022-08-23T11:40:55.982Z,47.50
2022-08-23T11:44:04.981Z,49.30
2022-08-23T11:47:08.241Z,49.90
2022-08-23T11:50:10.274Z,51.30
2022-08-23T11:53:32.476Z,52.90
2022-08-23T11:56:53.894Z,55.20
2022-08-23T12:00:14.544Z,56.60
2022-08-23T12:03:38.469Z,57.00
2022-08-23T12:06:42.540Z,58.40
2022-08-23T12:09:53.753Z,58.80
2022-08-23T12:13:14.515Z,58.80
2022-08-23T12:16:17.690Z,59.80
2022-08-23T12:19:25.203Z,59.20
2022-08-23T12:22:50.791Z,58.80
2022-08-23T12:26:00.513Z,58.80
2022-08-23T12:29:04.440Z,59.10
2022-08-23T12:32:15.474Z,59.10
2022-08-23T12:35:37.049Z,59.40
2022-08-23T12:38:58.585Z,59.50
2022-08-23T12:42:03.311Z,59.40
2022-08-23T12:45:17.494Z,60.00
2022-08-23T12:48:21.191Z,60.10
2022-08-23T12:51:23.183Z,59.30
2022-08-23T12:54:33.307Z,60.50
2022-08-23T12:57:37.100Z,59.00
2022-08-23T13:00:43.673Z,59.50
2022-08-23T13:03:47.912Z,57.50
2022-08-23T13:06:58.756Z,56.00
2022-08-23T13:10:00.742Z,56.00
2022-08-23T13:13:02.870Z,55.40
2022-08-23T13:16:27.311Z,54.90
2022-08-23T13:19:32.229Z,56.00
2022-08-23T13:22:35.440Z,56.40
2022-08-23T13:25:42.527Z,56.20
2022-08-23T13:29:00.587Z,55.90
2022-08-23T13:32:06.785Z,55.50
2022-08-23T13:35:27.581Z,56.40
2022-08-23T13:38:31.147Z,53.80
2022-08-23T13:41:38.421Z,55.70
2022-08-23T13:44:43.274Z,54.40
2022-08-23T13:47:49.395Z,55.90
2022-08-23T13:50:51.711Z,57.20
2022-08-23T13:53:54.694Z,58.60
2022-08-23T13:57:04.906Z,58.90
2022-08-23T14:00:10.813Z,58.70
2022-08-23T14:03:12.945Z,58.10
2022-08-23T14:06:15.037Z,57.70
2022-08-23T14:09:20.286Z,57.10
2022-08-23T14:12:24.360Z,57.50
2022-08-23T14:22:17.852Z,59.00
2022-08-23T14:25:20.751Z,58.70
2022-08-23T14:28:24.416Z,58.00
2022-08-23T14:31:26.714Z,57.50
2022-08-23T14:34:29.422Z,58.20
2022-08-23T14:40:57.856Z,60.10
2022-08-23T14:44:01.419Z,59.80
2022-08-23T14:47:04.394Z,60.60
2022-08-23T14:50:07.938Z,60.70
2022-08-23T14:53:10.392Z,61.20
2022-08-23T14:56:21.092Z,61.10
2022-08-23T14:59:23.525Z,61.50
2022-08-23T15:02:26.704Z,61.80
2022-08-23T15:05:28.714Z,62.00
2022-08-23T15:08:30.904Z,62.20
2022-08-23T15:14:57.189Z,62.90
2022-08-23T15:18:02.950Z,62.90
2022-08-23T15:21:05.237Z,63.10
2022-08-23T15:24:07.293Z,63.40
2022-08-23T15:27:09.288Z,63.60
2022-08-23T15:30:14.670Z,63.60
2022-08-23T15:33:16.931Z,63.90
2022-08-23T15:36:19.086Z,64.10
2022-08-23T15:39:21.026Z,64.00
2022-08-23T15:42:23.426Z,64.10
2022-08-23T15:45:25.655Z,64.00
2022-08-23T15:48:29.748Z,63.90
2022-08-23T15:51:32.009Z,64.20
2022-08-23T15:54:34.173Z,64.40
2022-08-23T15:57:41.679Z,64.60
2022-08-23T16:00:43.813Z,64.70
2022-08-23T16:03:45.851Z,64.40
2022-08-23T16:06:48.121Z,64.30
2022-08-23T16:09:50.260Z,64.60
2022-08-23T16:12:52.230Z,64.70
2022-08-23T16:15:54.224Z,64.70
2022-08-23T16:18:58.098Z,64.70
2022-08-23T16:22:00.191Z,64.80
2022-08-23T16:25:02.215Z,64.10
2022-08-23T16:28:05.044Z,64.50
2022-08-23T16:31:07.504Z,64.70
2022-08-23T16:34:12.063Z,65.30
2022-08-23T16:37:14.341Z,65.60
2022-08-23T16:40:16.743Z,65.60
2022-08-23T16:43:18.822Z,65.70
2022-08-23T16:46:22.080Z,66.30
2022-08-23T16:49:24.189Z,66.50
2022-08-23T16:52:34.364Z,66.80
2022-08-23T16:55:37.518Z,66.80
2022-08-23T16:58:42.729Z,67.00
2022-08-23T17:01:50.869Z,67.70
2022-08-23T17:04:53.031Z,67.30
2022-08-23T17:07:55.053Z,67.40
2022-08-23T17:11:01.145Z,67.70
2022-08-23T17:14:05.557Z,67.90
2022-08-23T17:17:07.605Z,68.40
2022-08-23T17:20:10.791Z,68.70
2022-08-23T17:23:12.892Z,70.00
2022-08-23T17:26:14.976Z,70.20
2022-08-23T17:29:17.052Z,71.10
2022-08-23T17:32:22.332Z,71.30
2022-08-23T17:35:28.070Z,71.60
2022-08-23T17:38:35.691Z,71.60
2022-08-23T17:41:40.973Z,72.20
2022-08-23T17:44:45.378Z,72.10
2022-08-23T17:47:48.686Z,71.50
2022-08-23T17:50:54.291Z,71.90
2022-08-23T17:53:56.991Z,72.60
2022-08-23T17:57:00.782Z,72.80
2022-08-23T18:00:03.753Z,72.90
2022-08-23T18:03:06.195Z,73.70
2022-08-23T18:06:08.479Z,73.90
2022-08-23T18:09:18.945Z,74.80
2022-08-23T18:12:22.840Z,75.60
2022-08-23T18:15:24.936Z,76.40
2022-08-23T18:18:29.202Z,76.80
2022-08-23T18:21:31.266Z,76.80
2022-08-23T18:24:33.347Z,77.60
2022-08-23T18:27:56.200Z,77.00
2022-08-23T18:30:58.190Z,76.70
2022-08-23T18:34:00.816Z,77.50
2022-08-23T18:37:03.710Z,77.90
2022-08-23T18:40:09.701Z,78.10
2022-08-23T18:43:22.550Z,78.40
2022-08-23T18:46:31.683Z,79.50
2022-08-23T18:49:37.635Z,79.70
2022-08-23T18:52:40.439Z,79.80
2022-08-23T18:55:42.540Z,80.50
2022-08-23T18:58:44.463Z,80.80
2022-08-23T19:01:46.773Z,80.70
2022-08-23T19:04:48.786Z,81.20
2022-08-23T19:07:50.687Z,80.50
2022-08-23T19:10:52.783Z,81.50
2022-08-23T19:13:55.044Z,82.50
2022-08-23T19:16:57.135Z,82.70
2022-08-23T19:19:59.310Z,83.70
2022-08-23T19:23:01.481Z,84.50
2022-08-23T19:26:07.942Z,85.70
2022-08-23T19:29:11.568Z,85.60
2022-08-23T19:32:14.931Z,85.30
2022-08-23T19:35:16.958Z,85.80
2022-08-23T19:38:18.932Z,86.00
2022-08-23T19:41:20.965Z,86.50
2022-08-23T19:44:24.398Z,86.90
2022-08-23T19:47:28.754Z,87.60
2022-08-23T19:50:31.049Z,87.60
2022-08-23T19:53:32.985Z,87.60
2022-08-23T19:56:44.770Z,88.10
2022-08-23T19:59:48.043Z,87.50
2022-08-23T20:02:50.134Z,88.60
2022-08-23T20:05:53.030Z,89.30
2022-08-23T20:08:55.687Z,88.70
2022-08-23T20:11:58.267Z,89.70
2022-08-23T20:15:00.693Z,90.00
2022-08-23T20:18:02.648Z,89.70
2022-08-23T20:21:04.632Z,89.70
2022-08-23T20:24:07.373Z,90.10
2022-08-23T20:27:09.437Z,90.70
2022-08-23T20:30:25.924Z,90.80
2022-08-23T20:33:28.061Z,90.80
2022-08-23T20:36:30.222Z,91.50
2022-08-23T20:39:32.188Z,91.30
2022-08-23T20:42:34.766Z,91.30
2022-08-23T20:45:36.707Z,91.80
2022-08-23T20:48:38.820Z,92.20
2022-08-23T20:51:40.781Z,92.60
2022-08-23T20:54:42.700Z,92.80
2022-08-23T20:57:44.886Z,93.00
2022-08-23T21:00:48.336Z,93.20
2022-08-23T21:03:50.340Z,92.90
2022-08-23T21:06:52.527Z,93.30
2022-08-23T21:09:55.829Z,93.10
2022-08-23T21:12:57.886Z,93.70
2022-08-23T21:16:00.524Z,94.00
2022-08-23T21:19:02.564Z,94.20
2022-08-23T21:22:04.555Z,93.90
2022-08-23T21:25:06.709Z,94.10
2022-08-23T21:28:08.747Z,94.50
2022-08-23T21:31:15.978Z,94.80
2022-08-23T21:34:18.534Z,94.80
2022-08-23T21:37:20.492Z,94.30
2022-08-23T21:40:22.502Z,94.70
2022-08-23T21:43:25.318Z,94.80
2022-08-23T21:46:27.339Z,95.00
2022-08-23T21:49:29.457Z,95.30
2022-08-23T21:52:32.666Z,95.10
2022-08-23T21:55:37.665Z,95.10
2022-08-23T21:58:41.872Z,95.10
2022-08-23T22:01:44.870Z,94.90
2022-08-23T22:04:48.291Z,94.70
2022-08-23T22:07:51.432Z,94.60
2022-08-23T22:10:58.077Z,95.30
2022-08-23T22:14:00.511Z,95.20
2022-08-23T22:17:04.659Z,95.20
2022-08-23T22:20:07.763Z,95.00
2022-08-23T22:23:10.739Z,95.40
2022-08-23T22:26:14.068Z,94.90
2022-08-23T22:29:16.130Z,95.00
2022-08-23T22:32:18.238Z,95.20
2022-08-23T22:35:20.810Z,95.20
2022-08-23T22:38:24.032Z,95.60
2022-08-23T22:41:30.155Z,95.10
2022-08-23T22:44:32.140Z,95.40
2022-08-23T22:47:34.372Z,95.30
2022-08-23T22:50:36.436Z,95.30
2022-08-23T22:53:39.515Z,95.70
2022-08-23T22:56:46.747Z,95.90
2022-08-23T22:59:48.636Z,95.80
2022-08-23T23:02:52.379Z,96.40
2022-08-23T23:05:54.311Z,96.40
2022-08-23T23:08:56.818Z,96.30
2022-08-23T23:11:59.399Z,96.80
2022-08-23T23:15:01.429Z,96.60
2022-08-23T23:18:03.723Z,96.80
2022-08-23T23:21:06.072Z,97.10
2022-08-23T23:24:09.157Z,97.40
2022-08-23T23:27:11.215Z,97.40
2022-08-23T23:30:14.576Z,97.80
2022-08-23T23:33:17.089Z,97.70
2022-08-23T23:36:19.045Z,98.00
2022-08-23T23:39:21.000Z,98.00
2022-08-23T23:42:22.980Z,98.30
2022-08-23T23:45:25.180Z,98.30
2022-08-23T23:48:27.197Z,98.40
2022-08-23T23:51:30.285Z,98.40
2022-08-23T23:54:33.980Z,98.20
2022-08-23T23:57:36.582Z,98.30
